GMMD

Beni Mellal Airport

Morocco
METAR GMMD 231900Z 20006KT CAVOK 13/07 Q1002 NOSIG
Observed Flight Rules
Feb-23 @ 19:00 UTC (4 hours ago) Visual Flight Rules
Wind Visibility Clouds
200° at 6 knots 10,000+ meters
  • Clear skies
Temperatures Readings
Current 13°C / 55°F
Dewpoint 7°C / 45°F
Humidity 67%
Altimeter 29.59" Hg
Pressure 1002 hPa
Elevation 509
METAR GMMD 231900Z 20006KT CAVOK 13/07 Q1002 NOSIG
Observed Flight Rules
Feb-23 @ 19:00 UTC
(4 hours ago)
VFR
Wind Visibility
200° at 6 knots 10,000+ meters
Clouds
  • Clear skies
Temperature Dewpoint
13°C / 55°F 7°C / 45°F
Humidity Altimeter Pressure
67% 29.59" Hg 1002 hPa